createdAt,value
2023-04-16T00:00:48.698Z,0
2023-04-16T00:01:48.758Z,0
2023-04-16T00:02:48.785Z,0
2023-04-16T00:03:48.881Z,0
2023-04-16T00:04:48.769Z,0
2023-04-16T00:05:48.705Z,0
2023-04-16T00:06:48.693Z,0
2023-04-16T00:07:48.699Z,0
2023-04-16T00:08:48.699Z,0
2023-04-16T00:09:48.701Z,0
2023-04-16T00:10:48.707Z,0
2023-04-16T00:11:48.697Z,0
2023-04-16T00:12:48.698Z,0
2023-04-16T00:13:48.696Z,0
2023-04-16T00:14:48.701Z,0
2023-04-16T00:15:48.698Z,0
2023-04-16T00:16:48.724Z,0
2023-04-16T00:17:48.732Z,0
2023-04-16T00:18:48.696Z,0
2023-04-16T00:19:48.691Z,0
2023-04-16T00:20:48.724Z,0
2023-04-16T00:21:48.700Z,0
2023-04-16T00:22:48.700Z,0
2023-04-16T00:23:48.698Z,0
2023-04-16T00:24:48.701Z,0
2023-04-16T00:25:48.698Z,0
2023-04-16T00:26:48.702Z,0
2023-04-16T00:27:48.709Z,0
2023-04-16T00:28:48.704Z,0
2023-04-16T00:29:48.700Z,0
2023-04-16T00:30:48.702Z,0
2023-04-16T00:31:48.700Z,0
2023-04-16T00:32:48.721Z,0
2023-04-16T00:33:48.702Z,0
2023-04-16T00:34:48.705Z,0
2023-04-16T00:35:48.701Z,0
2023-04-16T00:36:48.726Z,0
2023-04-16T00:37:48.700Z,0
2023-04-16T00:38:48.708Z,0
2023-04-16T00:39:48.702Z,0
2023-04-16T00:40:48.700Z,0
2023-04-16T00:41:48.702Z,0
2023-04-16T00:42:48.701Z,0
2023-04-16T00:43:48.707Z,0
2023-04-16T00:44:48.695Z,0
2023-04-16T00:45:48.758Z,0
2023-04-16T00:46:48.707Z,0
2023-04-16T00:47:48.709Z,0
2023-04-16T00:48:48.698Z,0
2023-04-16T00:49:48.704Z,0
2023-04-16T00:50:48.695Z,0
2023-04-16T00:51:48.701Z,0
2023-04-16T00:52:48.853Z,0
2023-04-16T00:53:48.702Z,0
2023-04-16T00:54:48.704Z,0
2023-04-16T00:55:48.700Z,0
2023-04-16T00:56:48.703Z,0
2023-04-16T00:57:48.699Z,0
2023-04-16T00:58:48.700Z,0
2023-04-16T00:59:48.701Z,0
2023-04-16T01:00:48.698Z,0
2023-04-16T01:01:48.758Z,0
2023-04-16T01:02:48.803Z,0
2023-04-16T01:03:48.769Z,0
2023-04-16T01:04:48.704Z,0
2023-04-16T01:05:48.702Z,0
2023-04-16T01:06:48.714Z,0
2023-04-16T01:07:48.705Z,0
2023-04-16T01:08:48.739Z,0
2023-04-16T01:09:48.721Z,0
2023-04-16T01:10:48.715Z,0
2023-04-16T01:11:48.706Z,0
2023-04-16T01:12:48.708Z,0
2023-04-16T01:13:48.708Z,0
2023-04-16T01:14:48.706Z,0
2023-04-16T01:15:48.723Z,0
2023-04-16T01:16:48.714Z,0
2023-04-16T01:17:48.718Z,0
2023-04-16T01:18:48.706Z,0
2023-04-16T01:19:48.712Z,0
2023-04-16T01:20:48.710Z,0
2023-04-16T01:21:48.711Z,0
2023-04-16T01:22:48.708Z,0
2023-04-16T01:23:48.709Z,0
2023-04-16T01:24:48.737Z,0
2023-04-16T01:25:48.716Z,0
2023-04-16T01:26:48.712Z,0
2023-04-16T01:27:48.705Z,0
2023-04-16T01:28:48.709Z,0
2023-04-16T01:29:48.709Z,0
2023-04-16T01:30:48.710Z,0
2023-04-16T01:31:48.752Z,0
2023-04-16T01:32:48.719Z,0
2023-04-16T01:33:48.710Z,0
2023-04-16T01:34:48.720Z,0
2023-04-16T01:35:48.718Z,0
2023-04-16T01:36:48.708Z,0
2023-04-16T01:37:48.711Z,0
2023-04-16T01:38:48.711Z,0
2023-04-16T01:39:48.708Z,0
2023-04-16T01:40:48.731Z,0
2023-04-16T01:41:48.738Z,0
2023-04-16T01:42:48.709Z,0
2023-04-16T01:43:48.714Z,0
2023-04-16T01:44:48.708Z,0
2023-04-16T01:45:48.710Z,0
2023-04-16T01:46:48.740Z,0
2023-04-16T01:47:48.731Z,0
2023-04-16T01:48:48.720Z,0
2023-04-16T01:49:48.719Z,0
2023-04-16T01:50:48.711Z,0
2023-04-16T01:51:48.718Z,0
2023-04-16T01:52:48.715Z,0
2023-04-16T01:53:48.711Z,0
2023-04-16T01:54:48.724Z,0
2023-04-16T01:55:48.705Z,0
2023-04-16T01:56:48.736Z,0
2023-04-16T01:57:48.730Z,0
2023-04-16T01:58:48.718Z,0
2023-04-16T01:59:48.714Z,0
2023-04-16T02:00:48.744Z,0
2023-04-16T02:01:48.817Z,0
2023-04-16T02:02:48.771Z,0
2023-04-16T02:03:48.928Z,0
2023-04-16T02:04:48.714Z,0
2023-04-16T02:05:48.717Z,0
2023-04-16T02:06:48.722Z,0
2023-04-16T02:07:48.724Z,0
2023-04-16T02:08:48.713Z,0
2023-04-16T02:09:48.716Z,0
2023-04-16T02:10:48.717Z,0
2023-04-16T02:11:48.718Z,0
2023-04-16T02:12:48.744Z,0
2023-04-16T02:13:48.715Z,0
2023-04-16T02:14:48.721Z,0
2023-04-16T02:15:48.722Z,0
2023-04-16T02:16:48.818Z,0
2023-04-16T02:17:48.764Z,0
2023-04-16T02:18:48.730Z,0
2023-04-16T02:19:48.723Z,0
2023-04-16T02:20:48.727Z,0
2023-04-16T02:21:48.727Z,0
2023-04-16T02:22:48.733Z,0
2023-04-16T02:23:48.730Z,0
2023-04-16T02:24:48.735Z,0
2023-04-16T02:25:48.727Z,0
2023-04-16T02:26:48.736Z,0
2023-04-16T02:27:48.737Z,0
2023-04-16T02:28:48.764Z,0
2023-04-16T02:29:48.730Z,0
2023-04-16T02:30:48.751Z,0
2023-04-16T02:31:48.809Z,0
2023-04-16T02:32:48.740Z,0
2023-04-16T02:33:48.737Z,0
2023-04-16T02:34:48.737Z,0
2023-04-16T02:35:48.740Z,0
2023-04-16T02:36:48.751Z,0
2023-04-16T02:37:48.739Z,0
2023-04-16T02:38:48.739Z,0
2023-04-16T02:39:48.744Z,0
2023-04-16T02:40:48.746Z,0
2023-04-16T02:41:48.742Z,0
2023-04-16T02:42:48.748Z,0
2023-04-16T02:43:48.745Z,0
2023-04-16T02:44:48.771Z,0
2023-04-16T02:45:48.780Z,0
2023-04-16T02:46:48.747Z,0
2023-04-16T02:47:48.782Z,0
2023-04-16T02:48:48.750Z,0
2023-04-16T02:49:48.751Z,0
2023-04-16T02:50:48.755Z,0
2023-04-16T02:51:48.755Z,0
2023-04-16T02:52:48.764Z,0
2023-04-16T02:53:48.756Z,0
2023-04-16T02:54:48.758Z,0
2023-04-16T02:55:48.754Z,0
2023-04-16T02:56:48.757Z,0
2023-04-16T02:57:48.765Z,0
2023-04-16T02:58:48.769Z,0
2023-04-16T02:59:48.760Z,0
2023-04-16T03:00:48.788Z,0
2023-04-16T03:01:48.869Z,0
2023-04-16T03:02:48.940Z,0
2023-04-16T03:03:48.775Z,0
2023-04-16T03:04:48.769Z,0
2023-04-16T03:05:48.764Z,0
2023-04-16T03:06:48.773Z,0
2023-04-16T03:07:48.771Z,0
2023-04-16T03:08:48.779Z,0
2023-04-16T03:09:48.778Z,0
2023-04-16T03:10:48.776Z,0
2023-04-16T03:11:48.774Z,0
2023-04-16T03:12:48.783Z,0
2023-04-16T03:13:48.782Z,0
2023-04-16T03:14:48.785Z,0
2023-04-16T03:15:48.792Z,0
2023-04-16T03:16:48.805Z,0
2023-04-16T03:17:48.841Z,0
2023-04-16T03:18:48.784Z,0
2023-04-16T03:19:48.783Z,0
2023-04-16T03:20:48.779Z,0
2023-04-16T03:21:48.789Z,0
2023-04-16T03:22:48.789Z,0
2023-04-16T03:23:48.790Z,0
2023-04-16T03:24:48.787Z,0
2023-04-16T03:25:48.802Z,0
2023-04-16T03:26:48.787Z,0
2023-04-16T03:27:48.801Z,0
2023-04-16T03:28:48.796Z,0
2023-04-16T03:29:48.798Z,0
2023-04-16T03:30:48.798Z,0
2023-04-16T03:31:48.799Z,0
2023-04-16T03:32:48.852Z,0
2023-04-16T03:33:48.798Z,0
2023-04-16T03:34:48.798Z,0
2023-04-16T03:35:48.800Z,0
2023-04-16T03:36:48.806Z,0
2023-04-16T03:37:48.801Z,0
2023-04-16T03:38:48.803Z,0
2023-04-16T03:39:48.804Z,0
2023-04-16T03:40:48.803Z,0
2023-04-16T03:41:48.806Z,0
2023-04-16T03:42:48.813Z,0
2023-04-16T03:43:48.811Z,0
2023-04-16T03:44:48.817Z,0
2023-04-16T03:45:48.818Z,0
2023-04-16T03:46:48.922Z,0
2023-04-16T03:47:48.854Z,0
2023-04-16T03:48:48.839Z,0
2023-04-16T03:49:48.821Z,0
2023-04-16T03:50:48.823Z,0
2023-04-16T03:51:48.820Z,0
2023-04-16T03:52:48.817Z,0
2023-04-16T03:53:48.816Z,0
2023-04-16T03:54:48.823Z,0
2023-04-16T03:55:48.823Z,0
2023-04-16T03:56:48.823Z,0
2023-04-16T03:57:48.831Z,0
2023-04-16T03:58:48.828Z,0
2023-04-16T03:59:48.827Z,0
2023-04-16T04:00:48.830Z,0
2023-04-16T04:01:48.909Z,0
2023-04-16T04:02:48.880Z,0
2023-04-16T04:03:49.013Z,0
2023-04-16T04:04:48.925Z,0
2023-04-16T04:05:48.828Z,0
2023-04-16T04:06:48.833Z,0
2023-04-16T04:07:48.834Z,2
2023-04-16T04:08:48.836Z,2
2023-04-16T04:09:48.832Z,2
2023-04-16T04:10:48.835Z,2
2023-04-16T04:11:48.838Z,2
2023-04-16T04:12:48.841Z,4
2023-04-16T04:13:48.838Z,4
2023-04-16T04:14:48.834Z,4
2023-04-16T04:15:48.838Z,4
2023-04-16T04:16:48.854Z,4
2023-04-16T04:17:48.851Z,9
2023-04-16T04:18:48.846Z,9
2023-04-16T04:20:00.269Z,9
2023-04-16T04:20:48.879Z,9
2023-04-16T04:21:48.850Z,9
2023-04-16T04:22:48.848Z,16
2023-04-16T04:23:48.850Z,16
2023-04-16T04:24:48.854Z,16
2023-04-16T04:25:48.886Z,16
2023-04-16T04:26:48.851Z,16
2023-04-16T04:27:48.852Z,22
2023-04-16T04:28:48.855Z,22
2023-04-16T04:29:48.850Z,22
2023-04-16T04:30:48.856Z,22
2023-04-16T04:31:48.879Z,22
2023-04-16T04:32:48.875Z,31
2023-04-16T04:33:48.864Z,31
2023-04-16T04:34:48.857Z,31
2023-04-16T04:35:48.865Z,31
2023-04-16T04:36:48.901Z,31
2023-04-16T04:37:48.863Z,45
2023-04-16T04:38:48.856Z,45
2023-04-16T04:39:48.856Z,45
2023-04-16T04:40:48.861Z,45
2023-04-16T04:41:48.856Z,45
2023-04-16T04:42:48.873Z,59
2023-04-16T04:43:48.859Z,59
2023-04-16T04:44:48.865Z,59
2023-04-16T04:45:48.911Z,59
2023-04-16T04:46:48.867Z,59
2023-04-16T04:47:48.916Z,78
2023-04-16T04:48:48.867Z,78
2023-04-16T04:49:48.869Z,78
2023-04-16T04:50:48.872Z,78
2023-04-16T04:51:48.875Z,78
2023-04-16T04:52:48.899Z,104
2023-04-16T04:53:48.876Z,104
2023-04-16T04:54:48.877Z,104
2023-04-16T04:55:52.242Z,104
2023-04-16T04:56:48.881Z,104
2023-04-16T04:57:48.877Z,109
2023-04-16T04:58:48.880Z,109
2023-04-16T04:59:48.881Z,109
2023-04-16T05:00:48.892Z,109
2023-04-16T05:01:48.912Z,109
2023-04-16T05:02:48.935Z,133
2023-04-16T05:03:48.914Z,133
2023-04-16T05:04:48.902Z,133
2023-04-16T05:05:48.886Z,133
2023-04-16T05:06:48.886Z,133
2023-04-16T05:07:48.896Z,151
2023-04-16T05:08:48.918Z,151
2023-04-16T05:09:48.896Z,151
2023-04-16T05:10:48.900Z,151
2023-04-16T05:11:48.899Z,151
2023-04-16T05:12:49.135Z,178
2023-04-16T05:13:48.899Z,178
2023-04-16T05:14:48.898Z,178
2023-04-16T05:15:48.904Z,178
2023-04-16T05:16:48.947Z,178
2023-04-16T05:17:48.937Z,204
2023-04-16T05:18:48.906Z,204
2023-04-16T05:19:48.905Z,204
2023-04-16T05:20:48.912Z,204
2023-04-16T05:21:48.901Z,204
2023-04-16T05:22:48.905Z,251
2023-04-16T05:23:48.911Z,251
2023-04-16T05:24:48.933Z,251
2023-04-16T05:25:48.909Z,251
2023-04-16T05:26:48.909Z,251
2023-04-16T05:27:48.908Z,265
2023-04-16T05:28:48.912Z,265
2023-04-16T05:29:48.918Z,265
2023-04-16T05:30:48.938Z,265
2023-04-16T05:31:48.923Z,265
2023-04-16T05:32:48.935Z,279
2023-04-16T05:33:48.912Z,279
2023-04-16T05:34:48.914Z,279
2023-04-16T05:35:48.917Z,279
2023-04-16T05:36:48.923Z,279
2023-04-16T05:37:48.917Z,291
2023-04-16T05:38:48.918Z,291
2023-04-16T05:39:48.916Z,291
2023-04-16T05:40:48.943Z,291
2023-04-16T05:41:48.922Z,291
2023-04-16T05:42:48.923Z,259
2023-04-16T05:43:48.921Z,259
2023-04-16T05:44:48.944Z,259
2023-04-16T05:45:48.933Z,259
2023-04-16T05:46:48.920Z,259
2023-04-16T05:47:48.932Z,361
2023-04-16T05:48:48.923Z,361
2023-04-16T05:49:48.922Z,361
2023-04-16T05:50:48.930Z,361
2023-04-16T05:51:50.339Z,361
2023-04-16T05:52:48.926Z,425
2023-04-16T05:53:48.929Z,425
2023-04-16T05:54:48.944Z,425
2023-04-16T05:55:48.956Z,425
2023-04-16T05:56:48.978Z,425
2023-04-16T05:57:48.947Z,401
2023-04-16T05:58:48.937Z,401
2023-04-16T05:59:48.934Z,401
2023-04-16T06:00:48.938Z,401
2023-04-16T06:01:48.960Z,401
2023-04-16T06:02:48.997Z,394
2023-04-16T06:03:48.976Z,394
2023-04-16T06:04:48.933Z,394
2023-04-16T06:05:48.959Z,394
2023-04-16T06:06:48.935Z,394
2023-04-16T06:07:48.938Z,440
2023-04-16T06:08:48.935Z,440
2023-04-16T06:09:48.940Z,440
2023-04-16T06:10:48.957Z,440
2023-04-16T06:11:48.940Z,440
2023-04-16T06:12:48.964Z,420
2023-04-16T06:13:48.943Z,420
2023-04-16T06:14:48.938Z,420
2023-04-16T06:15:48.956Z,420
2023-04-16T06:16:48.945Z,420
2023-04-16T06:17:48.950Z,388
2023-04-16T06:18:48.944Z,388
2023-04-16T06:19:48.943Z,388
2023-04-16T06:20:48.948Z,388
2023-04-16T06:21:48.948Z,388
2023-04-16T06:22:48.943Z,431
2023-04-16T06:23:48.936Z,431
2023-04-16T06:24:48.940Z,431
2023-04-16T06:25:48.942Z,431
2023-04-16T06:26:48.953Z,431
2023-04-16T06:27:48.939Z,484
2023-04-16T06:28:50.453Z,484
2023-04-16T06:29:48.948Z,484
2023-04-16T06:30:48.945Z,484
2023-04-16T06:31:48.972Z,484
2023-04-16T06:32:48.973Z,479
2023-04-16T06:33:48.954Z,479
2023-04-16T06:34:48.981Z,479
2023-04-16T06:35:48.958Z,479
2023-04-16T06:36:48.949Z,479
2023-04-16T06:37:48.954Z,512
2023-04-16T06:38:48.952Z,512
2023-04-16T06:39:48.957Z,512
2023-04-16T06:40:48.950Z,512
2023-04-16T06:41:48.954Z,512
2023-04-16T06:42:48.954Z,540
2023-04-16T06:43:48.952Z,540
2023-04-16T06:44:49.008Z,540
2023-04-16T06:45:48.960Z,540
2023-04-16T06:46:49.047Z,540
2023-04-16T06:47:48.972Z,532
2023-04-16T06:48:48.967Z,532
2023-04-16T06:49:48.968Z,532
2023-04-16T06:50:48.967Z,532
2023-04-16T06:51:48.972Z,532
2023-04-16T06:52:48.966Z,582
2023-04-16T06:53:48.970Z,582
2023-04-16T06:54:48.972Z,582
2023-04-16T06:55:48.988Z,582
2023-04-16T06:56:48.969Z,582
2023-04-16T06:57:48.973Z,588
2023-04-16T06:58:48.972Z,588
2023-04-16T06:59:48.970Z,588
2023-04-16T07:00:49.032Z,588
2023-04-16T07:01:49.017Z,588
2023-04-16T07:02:49.080Z,757
2023-04-16T07:03:49.160Z,757
2023-04-16T07:04:48.982Z,757
2023-04-16T07:05:48.991Z,757
2023-04-16T07:06:48.984Z,757
2023-04-16T07:07:48.982Z,1009
2023-04-16T07:08:48.982Z,1009
2023-04-16T07:09:48.988Z,1009
2023-04-16T07:10:48.997Z,1009
2023-04-16T07:11:49.003Z,1009
2023-04-16T07:12:48.995Z,1095
2023-04-16T07:13:48.990Z,1095
2023-04-16T07:14:48.992Z,1095
2023-04-16T07:15:48.996Z,1095
2023-04-16T07:16:49.045Z,1095
2023-04-16T07:17:49.028Z,1107
2023-04-16T07:18:49.001Z,1107
2023-04-16T07:19:48.996Z,1107
2023-04-16T07:20:49.004Z,1107
2023-04-16T07:21:48.992Z,1107
2023-04-16T07:22:48.994Z,1158
2023-04-16T07:23:49.001Z,1158
2023-04-16T07:24:49.002Z,1158
2023-04-16T07:25:49.000Z,1158
2023-04-16T07:26:48.999Z,1158
2023-04-16T07:27:49.005Z,1193
2023-04-16T07:28:49.001Z,1193
2023-04-16T07:29:49.004Z,1193
2023-04-16T07:30:49.022Z,1193
2023-04-16T07:31:49.038Z,1193
2023-04-16T07:32:49.047Z,1193
2023-04-16T07:33:49.021Z,1193
2023-04-16T07:34:49.011Z,1193
2023-04-16T07:35:49.008Z,1193
2023-04-16T07:36:49.013Z,1193
2023-04-16T07:37:49.014Z,1288
2023-04-16T07:38:49.008Z,1288
2023-04-16T07:39:49.009Z,1288
2023-04-16T07:40:49.012Z,1288
2023-04-16T07:41:49.010Z,1288
2023-04-16T07:42:49.007Z,1357
2023-04-16T07:43:49.019Z,1357
2023-04-16T07:44:49.010Z,1357
2023-04-16T07:45:49.025Z,1357
2023-04-16T07:46:49.030Z,1357
2023-04-16T07:47:49.069Z,1416
2023-04-16T07:48:49.036Z,1416
2023-04-16T07:49:49.012Z,1416
2023-04-16T07:50:49.014Z,1416
2023-04-16T07:51:49.010Z,1416
2023-04-16T07:52:49.016Z,1501
2023-04-16T07:53:49.015Z,1501
2023-04-16T07:54:49.027Z,1501
2023-04-16T07:55:49.015Z,1501
2023-04-16T07:56:49.025Z,1501
2023-04-16T07:57:49.015Z,1661
2023-04-16T07:58:49.016Z,1661
2023-04-16T07:59:49.031Z,1661
2023-04-16T08:00:50.838Z,1661
2023-04-16T08:01:49.042Z,1661
2023-04-16T08:02:49.158Z,1585
2023-04-16T08:03:49.150Z,1585
2023-04-16T08:04:49.159Z,1585
2023-04-16T08:05:49.019Z,1585
2023-04-16T08:06:49.021Z,1585
2023-04-16T08:07:49.021Z,1536
2023-04-16T08:08:49.023Z,1536
2023-04-16T08:09:49.023Z,1536
2023-04-16T08:10:49.021Z,1536
2023-04-16T08:11:49.037Z,1536
2023-04-16T08:12:49.020Z,1561
2023-04-16T08:13:49.020Z,1561
2023-04-16T08:14:49.034Z,1561
2023-04-16T08:15:49.052Z,1561
2023-04-16T08:16:49.033Z,1561
2023-04-16T08:17:49.040Z,1615
2023-04-16T08:18:49.026Z,1615
2023-04-16T08:19:49.032Z,1615
2023-04-16T08:20:49.065Z,1615
2023-04-16T08:21:49.060Z,1615
2023-04-16T08:22:49.070Z,1642
2023-04-16T08:23:49.046Z,1642
2023-04-16T08:24:49.032Z,1642
2023-04-16T08:25:49.033Z,1642
2023-04-16T08:26:49.037Z,1642
2023-04-16T08:27:49.032Z,1551
2023-04-16T08:28:49.041Z,1546
2023-04-16T08:29:49.035Z,1546
2023-04-16T08:30:49.042Z,1546
2023-04-16T08:31:49.119Z,1546
2023-04-16T08:32:50.203Z,1411
2023-04-16T08:33:49.040Z,1411
2023-04-16T08:34:49.044Z,1411
2023-04-16T08:35:49.043Z,1411
2023-04-16T08:36:49.072Z,1411
2023-04-16T08:37:49.042Z,1428
2023-04-16T08:38:49.042Z,1428
2023-04-16T08:39:49.044Z,1428
2023-04-16T08:40:49.046Z,1428
2023-04-16T08:41:49.046Z,1428
2023-04-16T08:42:49.046Z,1523
2023-04-16T08:43:49.050Z,1523
2023-04-16T08:44:49.384Z,1523
2023-04-16T08:45:49.052Z,1523
2023-04-16T08:46:49.102Z,1523
2023-04-16T08:47:49.108Z,1676
2023-04-16T08:48:49.049Z,1676
2023-04-16T08:49:49.063Z,1676
2023-04-16T08:50:49.050Z,1676
2023-04-16T08:51:49.051Z,1676
2023-04-16T08:52:49.074Z,1713
2023-04-16T08:53:49.052Z,1713
2023-04-16T08:54:56.851Z,1713
2023-04-16T08:55:49.065Z,1713
2023-04-16T08:56:49.057Z,1713
2023-04-16T08:57:49.051Z,1796
2023-04-16T08:58:49.058Z,1796
2023-04-16T08:59:49.055Z,1796
2023-04-16T09:00:49.058Z,1796
2023-04-16T09:01:49.150Z,1796
2023-04-16T09:02:49.299Z,2049
2023-04-16T09:03:49.158Z,2049
2023-04-16T09:04:49.141Z,2049
2023-04-16T09:05:49.060Z,2049
2023-04-16T09:06:49.060Z,2049
2023-04-16T09:07:49.065Z,2333
2023-04-16T09:08:49.082Z,2333
2023-04-16T09:09:49.063Z,2387
2023-04-16T09:10:49.062Z,2387
2023-04-16T09:11:49.066Z,2387
2023-04-16T09:12:49.066Z,2387
2023-04-16T09:13:49.081Z,2593
2023-04-16T09:14:49.074Z,2593
2023-04-16T09:15:49.064Z,2593
2023-04-16T09:16:49.072Z,2593
2023-04-16T09:17:49.073Z,2593
2023-04-16T09:18:49.074Z,3130
2023-04-16T09:19:49.075Z,3130
2023-04-16T09:20:49.082Z,3130
2023-04-16T09:21:49.075Z,3130
2023-04-16T09:22:49.081Z,3130
2023-04-16T09:23:49.076Z,3209
2023-04-16T09:24:49.108Z,3209
2023-04-16T09:25:49.081Z,3321
2023-04-16T09:26:49.095Z,3316
2023-04-16T09:27:49.089Z,3316
2023-04-16T09:28:49.083Z,3316
2023-04-16T09:29:49.081Z,3316
2023-04-16T09:30:49.087Z,3085
2023-04-16T09:31:49.103Z,3085
2023-04-16T09:32:49.114Z,3085
2023-04-16T09:33:49.100Z,3085
2023-04-16T09:34:49.085Z,3085
2023-04-16T09:35:49.089Z,2859
2023-04-16T09:36:49.090Z,2827
2023-04-16T09:37:49.090Z,2827
2023-04-16T09:38:49.105Z,2827
2023-04-16T09:39:49.092Z,2827
2023-04-16T09:40:49.118Z,2827
2023-04-16T09:41:49.089Z,2345
2023-04-16T09:42:49.089Z,2345
2023-04-16T09:43:49.091Z,2345
2023-04-16T09:44:49.089Z,2134
2023-04-16T09:45:49.120Z,2134
2023-04-16T09:46:49.094Z,2134
2023-04-16T09:47:49.096Z,2134
2023-04-16T09:48:49.101Z,2134
2023-04-16T09:49:49.107Z,1954
2023-04-16T09:50:49.103Z,1954
2023-04-16T09:51:49.097Z,1919
2023-04-16T09:52:49.104Z,1919
2023-04-16T09:53:49.104Z,1919
2023-04-16T09:54:49.098Z,1919
2023-04-16T09:55:49.103Z,1919
2023-04-16T09:56:49.118Z,1963
2023-04-16T09:57:49.103Z,1963
2023-04-16T09:58:49.110Z,1963
2023-04-16T09:59:49.109Z,1963
2023-04-16T10:00:49.104Z,1963
2023-04-16T10:01:49.215Z,1976
2023-04-16T10:02:50.555Z,1976
2023-04-16T10:03:49.330Z,1976
2023-04-16T10:04:49.158Z,1976
2023-04-16T10:05:49.106Z,1976
2023-04-16T10:06:49.104Z,2021
2023-04-16T10:07:49.103Z,2021
2023-04-16T10:08:50.126Z,2021
2023-04-16T10:09:49.105Z,2021
2023-04-16T10:10:49.109Z,2021
2023-04-16T10:11:49.108Z,2143
2023-04-16T10:12:49.154Z,2143
2023-04-16T10:13:49.117Z,2143
2023-04-16T10:14:50.347Z,2143
2023-04-16T10:15:49.113Z,2143
2023-04-16T10:16:49.206Z,2352
2023-04-16T10:17:49.127Z,2352
2023-04-16T10:18:49.117Z,2448
2023-04-16T10:19:49.118Z,2448
2023-04-16T10:20:49.118Z,2448
2023-04-16T10:21:49.115Z,2448
2023-04-16T10:22:49.116Z,2448
2023-04-16T10:23:49.133Z,2515
2023-04-16T10:24:49.121Z,2515
2023-04-16T10:25:49.125Z,2515
2023-04-16T10:26:49.122Z,2515
2023-04-16T10:27:49.125Z,2515
2023-04-16T10:28:49.153Z,2316
2023-04-16T10:29:49.131Z,2316
2023-04-16T10:30:49.147Z,2316
2023-04-16T10:31:49.134Z,2316
2023-04-16T10:32:49.149Z,2316
2023-04-16T10:33:49.126Z,2200
2023-04-16T10:34:49.125Z,2200
2023-04-16T10:35:57.825Z,2200
2023-04-16T10:36:49.132Z,2200
2023-04-16T10:37:49.132Z,2200
2023-04-16T10:38:49.135Z,2146
2023-04-16T10:39:49.132Z,2146
2023-04-16T10:40:49.134Z,2146
2023-04-16T10:41:49.133Z,2146
2023-04-16T10:42:49.136Z,2179
2023-04-16T10:43:49.133Z,2179
2023-04-16T10:44:49.163Z,2179
2023-04-16T10:45:49.149Z,2179
2023-04-16T10:46:49.141Z,2179
2023-04-16T10:47:49.157Z,2422
2023-04-16T10:48:50.540Z,2422
2023-04-16T10:49:49.136Z,2422
2023-04-16T10:50:49.944Z,2422
2023-04-16T10:51:49.134Z,2422
2023-04-16T10:52:49.146Z,2960
2023-04-16T10:53:49.141Z,2960
2023-04-16T10:54:49.143Z,2960
2023-04-16T10:55:49.137Z,3251
2023-04-16T10:56:49.140Z,3251
2023-04-16T10:57:49.139Z,3338
2023-04-16T10:58:49.140Z,3643
2023-04-16T10:59:49.149Z,3823
2023-04-16T11:00:49.166Z,4774
2023-04-16T11:01:49.174Z,3455
2023-04-16T11:02:49.198Z,3447
2023-04-16T11:03:49.275Z,3447
2023-04-16T11:04:49.372Z,3447
2023-04-16T11:05:49.140Z,3447
2023-04-16T11:06:49.158Z,3658
2023-04-16T11:07:49.778Z,3739
2023-04-16T11:08:54.329Z,3764
2023-04-16T11:09:49.137Z,3812
2023-04-16T11:10:49.144Z,3812
2023-04-16T11:11:49.139Z,3955
2023-04-16T11:12:49.134Z,4116
2023-04-16T11:13:49.138Z,4162
2023-04-16T11:14:49.137Z,4660
2023-04-16T11:15:49.164Z,5809
2023-04-16T11:16:49.333Z,5805
2023-04-16T11:17:49.148Z,7276
2023-04-16T11:18:51.265Z,7575
2023-04-16T11:19:49.151Z,4263
2023-04-16T11:20:49.148Z,4061
2023-04-16T11:21:49.150Z,3675
2023-04-16T11:22:49.183Z,3596
2023-04-16T11:23:49.147Z,3578
2023-04-16T11:24:49.149Z,3651
2023-04-16T11:25:49.160Z,3802
2023-04-16T11:26:49.237Z,4117
2023-04-16T11:27:49.161Z,4853
2023-04-16T11:28:49.154Z,5837
2023-04-16T11:29:49.152Z,6328
2023-04-16T11:30:49.153Z,6349
2023-04-16T11:31:49.194Z,5909
2023-04-16T11:32:49.227Z,4602
2023-04-16T11:33:49.150Z,4655
2023-04-16T11:34:49.153Z,6714
2023-04-16T11:35:49.153Z,7112
2023-04-16T11:36:49.186Z,4298
2023-04-16T11:37:49.162Z,4087
2023-04-16T11:38:49.161Z,3898
2023-04-16T11:39:49.157Z,3878
2023-04-16T11:40:49.159Z,3852
2023-04-16T11:41:49.164Z,3886
2023-04-16T11:42:49.164Z,3922
2023-04-16T11:43:49.166Z,3885
2023-04-16T11:44:49.173Z,4186
2023-04-16T11:45:49.171Z,6674
2023-04-16T11:46:49.227Z,7898
2023-04-16T11:47:49.221Z,8646
2023-04-16T11:48:49.199Z,6575
2023-04-16T11:49:49.173Z,8125
2023-04-16T11:50:49.174Z,8502
2023-04-16T11:51:49.173Z,6784
2023-04-16T11:52:49.174Z,6522
2023-04-16T11:53:49.173Z,5272
2023-04-16T11:54:49.177Z,4874
2023-04-16T11:55:49.178Z,4199
2023-04-16T11:56:49.180Z,4898
2023-04-16T11:57:49.178Z,4107
2023-04-16T11:58:49.180Z,3499
2023-04-16T12:00:01.214Z,3168
2023-04-16T12:00:49.177Z,3041
2023-04-16T12:01:49.314Z,2943
2023-04-16T12:02:49.358Z,2919
2023-04-16T12:03:49.490Z,2901
2023-04-16T12:04:49.310Z,2931
2023-04-16T12:05:49.191Z,2941
2023-04-16T12:06:49.194Z,2897
2023-04-16T12:07:49.189Z,2905
2023-04-16T12:08:49.194Z,2953
2023-04-16T12:09:49.193Z,3001
2023-04-16T12:10:49.190Z,3113
2023-04-16T12:11:49.194Z,3266
2023-04-16T12:12:49.211Z,3872
2023-04-16T12:13:49.192Z,5721
2023-04-16T12:14:49.200Z,3882
2023-04-16T12:15:49.198Z,5180
2023-04-16T12:16:49.245Z,3888
2023-04-16T12:17:49.221Z,3974
2023-04-16T12:18:49.202Z,5309
2023-04-16T12:19:49.206Z,5036
2023-04-16T12:20:49.234Z,4192
2023-04-16T12:21:49.199Z,4107
2023-04-16T12:22:49.204Z,4125
2023-04-16T12:23:49.215Z,4591
2023-04-16T12:24:49.214Z,4783
2023-04-16T12:25:49.211Z,5186
2023-04-16T12:26:49.203Z,4238
2023-04-16T12:27:52.266Z,4237
2023-04-16T12:28:49.208Z,4631
2023-04-16T12:29:49.205Z,4227
2023-04-16T12:30:49.228Z,3971
2023-04-16T12:31:49.213Z,3765
2023-04-16T12:32:49.236Z,3636
2023-04-16T12:33:49.217Z,3648
2023-04-16T12:34:49.727Z,3827
2023-04-16T12:35:49.214Z,3694
2023-04-16T12:36:49.246Z,3747
2023-04-16T12:37:49.218Z,3676
2023-04-16T12:38:49.225Z,3298
2023-04-16T12:39:49.215Z,3195
2023-04-16T12:40:49.219Z,3160
2023-04-16T12:41:49.223Z,3215
2023-04-16T12:42:49.221Z,3215
2023-04-16T12:43:49.221Z,3331
2023-04-16T12:44:49.233Z,3416
2023-04-16T12:45:49.257Z,3331
2023-04-16T12:46:49.306Z,3178
2023-04-16T12:47:49.278Z,3125
2023-04-16T12:48:49.228Z,2925
2023-04-16T12:49:49.228Z,2765
2023-04-16T12:50:49.232Z,2688
2023-04-16T12:51:49.231Z,2685
2023-04-16T12:52:49.252Z,2715
2023-04-16T12:53:49.229Z,2708
2023-04-16T12:54:49.233Z,2563
2023-04-16T12:55:49.240Z,2535
2023-04-16T12:56:49.233Z,2462
2023-04-16T12:57:49.237Z,2440
2023-04-16T12:58:49.240Z,2451
2023-04-16T12:59:49.241Z,2451
2023-04-16T13:00:49.239Z,2451
2023-04-16T13:01:49.321Z,2451
2023-04-16T13:02:49.331Z,2502
2023-04-16T13:03:49.452Z,2542
2023-04-16T13:04:49.363Z,2554
2023-04-16T13:05:49.244Z,2554
2023-04-16T13:06:49.247Z,2536
2023-04-16T13:07:49.249Z,2536
2023-04-16T13:08:49.268Z,2495
2023-04-16T13:09:49.249Z,2495
2023-04-16T13:10:49.250Z,2495
2023-04-16T13:11:49.250Z,2454
2023-04-16T13:12:49.305Z,2420
2023-04-16T13:13:49.258Z,2420
2023-04-16T13:14:49.261Z,2364
2023-04-16T13:15:49.293Z,2364
2023-04-16T13:16:49.270Z,2238
2023-04-16T13:17:49.265Z,2238
2023-04-16T13:18:49.256Z,2238
2023-04-16T13:19:49.257Z,2235
2023-04-16T13:20:49.260Z,2235
2023-04-16T13:21:49.255Z,2322
2023-04-16T13:22:49.263Z,2263
2023-04-16T13:23:49.261Z,2321
2023-04-16T13:24:49.292Z,2312
2023-04-16T13:25:50.624Z,2314
2023-04-16T13:26:49.268Z,2329
2023-04-16T13:27:49.268Z,2377
2023-04-16T13:28:49.289Z,2359
2023-04-16T13:29:49.269Z,2366
2023-04-16T13:30:49.401Z,2387
2023-04-16T13:31:49.296Z,2408
2023-04-16T13:32:49.291Z,2472
2023-04-16T13:33:49.274Z,2506
2023-04-16T13:34:49.275Z,2495
2023-04-16T13:35:49.274Z,2533
2023-04-16T13:36:49.275Z,2533
2023-04-16T13:37:49.273Z,2563
2023-04-16T13:38:49.278Z,2563
2023-04-16T13:39:49.272Z,2563
2023-04-16T13:40:49.306Z,2729
2023-04-16T13:41:49.282Z,2757
2023-04-16T13:42:49.280Z,2790
2023-04-16T13:43:49.292Z,2790
2023-04-16T13:44:49.307Z,2790
2023-04-16T13:45:49.298Z,2790
2023-04-16T13:46:49.304Z,3035
2023-04-16T13:47:49.313Z,3623
2023-04-16T13:48:49.285Z,3387
2023-04-16T13:49:49.289Z,3483
2023-04-16T13:50:49.282Z,3947
2023-04-16T13:51:49.287Z,4041